sensor_id;sensor_type;location;lat;lon;timestamp;P1;durP1;ratioP1;P2;durP2;ratioP2
65567;SDS011;52211;50.154;8.682;2023-08-17T00:00:42;4.40;;;1.73;;
65567;SDS011;52211;50.154;8.682;2023-08-17T00:03:16;1.50;;;1.40;;
65567;SDS011;52211;50.154;8.682;2023-08-17T00:05:45;1.50;;;1.40;;
65567;SDS011;52211;50.154;8.682;2023-08-17T00:08:12;1.47;;;1.37;;
65567;SDS011;52211;50.154;8.682;2023-08-17T00:10:41;1.30;;;1.20;;
65567;SDS011;52211;50.154;8.682;2023-08-17T00:13:14;2.67;;;1.23;;
65567;SDS011;52211;50.154;8.682;2023-08-17T00:15:43;3.07;;;1.70;;
65567;SDS011;52211;50.154;8.682;2023-08-17T00:18:11;1.70;;;1.60;;
65567;SDS011;52211;50.154;8.682;2023-08-17T00:20:40;2.73;;;1.30;;
65567;SDS011;52211;50.154;8.682;2023-08-17T00:23:10;2.27;;;1.50;;
65567;SDS011;52211;50.154;8.682;2023-08-17T00:25:37;1.97;;;1.10;;
65567;SDS011;52211;50.154;8.682;2023-08-17T00:28:06;1.17;;;1.07;;
65567;SDS011;52211;50.154;8.682;2023-08-17T00:30:33;4.23;;;1.33;;
65567;SDS011;52211;50.154;8.682;2023-08-17T00:33:04;1.67;;;1.30;;
65567;SDS011;52211;50.154;8.682;2023-08-17T00:35:33;1.80;;;1.43;;
65567;SDS011;52211;50.154;8.682;2023-08-17T00:38:05;2.90;;;1.37;;
65567;SDS011;52211;50.154;8.682;2023-08-17T00:40:32;2.73;;;1.40;;
65567;SDS011;52211;50.154;8.682;2023-08-17T00:43:04;2.37;;;1.70;;
65567;SDS011;52211;50.154;8.682;2023-08-17T00:45:35;1.87;;;1.60;;
65567;SDS011;52211;50.154;8.682;2023-08-17T00:48:03;3.83;;;1.90;;
65567;SDS011;52211;50.154;8.682;2023-08-17T00:50:35;2.60;;;1.57;;
65567;SDS011;52211;50.154;8.682;2023-08-17T00:53:04;1.50;;;1.40;;
65567;SDS011;52211;50.154;8.682;2023-08-17T00:55:32;1.90;;;1.50;;
65567;SDS011;52211;50.154;8.682;2023-08-17T00:58:05;2.07;;;1.83;;
65567;SDS011;52211;50.154;8.682;2023-08-17T01:00:32;2.40;;;1.47;;
65567;SDS011;52211;50.154;8.682;2023-08-17T01:03:02;2.80;;;2.07;;
65567;SDS011;52211;50.154;8.682;2023-08-17T01:05:32;1.43;;;1.33;;
65567;SDS011;52211;50.154;8.682;2023-08-17T01:07:59;1.63;;;1.40;;
65567;SDS011;52211;50.154;8.682;2023-08-17T01:10:30;2.90;;;1.67;;
65567;SDS011;52211;50.154;8.682;2023-08-17T01:13:46;2.00;;;1.90;;
65567;SDS011;52211;50.154;8.682;2023-08-17T01:16:31;2.07;;;1.80;;
65567;SDS011;52211;50.154;8.682;2023-08-17T01:19:10;1.70;;;1.60;;
65567;SDS011;52211;50.154;8.682;2023-08-17T01:21:54;3.40;;;1.97;;
65567;SDS011;52211;50.154;8.682;2023-08-17T01:24:29;3.87;;;2.00;;
65567;SDS011;52211;50.154;8.682;2023-08-17T01:26:59;3.07;;;2.17;;
65567;SDS011;52211;50.154;8.682;2023-08-17T01:29:28;2.53;;;1.70;;
65567;SDS011;52211;50.154;8.682;2023-08-17T01:32:02;2.23;;;1.67;;
65567;SDS011;52211;50.154;8.682;2023-08-17T01:34:47;2.20;;;2.00;;
65567;SDS011;52211;50.154;8.682;2023-08-17T01:37:35;2.97;;;2.40;;
65567;SDS011;52211;50.154;8.682;2023-08-17T01:40:09;2.47;;;1.80;;
65567;SDS011;52211;50.154;8.682;2023-08-17T01:42:39;4.07;;;2.20;;
65567;SDS011;52211;50.154;8.682;2023-08-17T01:45:13;2.57;;;2.37;;
65567;SDS011;52211;50.154;8.682;2023-08-17T01:47:42;2.00;;;1.90;;
65567;SDS011;52211;50.154;8.682;2023-08-17T01:50:12;2.10;;;1.60;;
65567;SDS011;52211;50.154;8.682;2023-08-17T01:52:40;3.97;;;2.47;;
65567;SDS011;52211;50.154;8.682;2023-08-17T01:55:12;2.57;;;2.07;;
65567;SDS011;52211;50.154;8.682;2023-08-17T01:57:39;5.33;;;2.10;;
65567;SDS011;52211;50.154;8.682;2023-08-17T02:00:07;2.53;;;2.33;;
65567;SDS011;52211;50.154;8.682;2023-08-17T02:02:39;3.50;;;2.30;;
65567;SDS011;52211;50.154;8.682;2023-08-17T02:05:10;4.40;;;2.40;;
65567;SDS011;52211;50.154;8.682;2023-08-17T02:07:40;2.10;;;1.90;;
65567;SDS011;52211;50.154;8.682;2023-08-17T02:10:07;2.63;;;2.43;;
65567;SDS011;52211;50.154;8.682;2023-08-17T02:12:34;2.57;;;1.80;;
65567;SDS011;52211;50.154;8.682;2023-08-17T02:15:06;3.23;;;1.90;;
65567;SDS011;52211;50.154;8.682;2023-08-17T02:17:34;4.23;;;2.10;;
65567;SDS011;52211;50.154;8.682;2023-08-17T02:20:06;3.27;;;2.13;;
65567;SDS011;52211;50.154;8.682;2023-08-17T02:22:36;3.93;;;2.23;;
65567;SDS011;52211;50.154;8.682;2023-08-17T02:25:05;2.30;;;2.10;;
65567;SDS011;52211;50.154;8.682;2023-08-17T02:27:33;2.40;;;2.20;;
65567;SDS011;52211;50.154;8.682;2023-08-17T02:30:00;2.13;;;1.80;;
65567;SDS011;52211;50.154;8.682;2023-08-17T02:32:31;2.17;;;1.97;;
65567;SDS011;52211;50.154;8.682;2023-08-17T02:35:03;4.53;;;2.27;;
65567;SDS011;52211;50.154;8.682;2023-08-17T02:37:35;2.23;;;2.07;;
65567;SDS011;52211;50.154;8.682;2023-08-17T02:40:02;2.87;;;2.60;;
65567;SDS011;52211;50.154;8.682;2023-08-17T02:42:33;2.70;;;2.50;;
65567;SDS011;52211;50.154;8.682;2023-08-17T02:45:02;3.03;;;2.83;;
65567;SDS011;52211;50.154;8.682;2023-08-17T02:47:32;2.30;;;2.10;;
65567;SDS011;52211;50.154;8.682;2023-08-17T02:50:01;2.80;;;2.60;;
65567;SDS011;52211;50.154;8.682;2023-08-17T02:52:29;2.60;;;2.30;;
65567;SDS011;52211;50.154;8.682;2023-08-17T02:54:58;2.30;;;2.10;;
65567;SDS011;52211;50.154;8.682;2023-08-17T02:57:25;2.57;;;2.37;;
65567;SDS011;52211;50.154;8.682;2023-08-17T02:59:54;2.43;;;2.17;;
65567;SDS011;52211;50.154;8.682;2023-08-17T03:02:21;2.50;;;2.20;;
65567;SDS011;52211;50.154;8.682;2023-08-17T03:04:51;3.03;;;2.13;;
65567;SDS011;52211;50.154;8.682;2023-08-17T03:07:18;2.40;;;2.20;;
65567;SDS011;52211;50.154;8.682;2023-08-17T03:09:44;2.00;;;1.90;;
65567;SDS011;52211;50.154;8.682;2023-08-17T03:12:14;2.80;;;2.13;;
65567;SDS011;52211;50.154;8.682;2023-08-17T03:14:41;2.93;;;2.40;;
65567;SDS011;52211;50.154;8.682;2023-08-17T03:17:10;2.80;;;2.43;;
65567;SDS011;52211;50.154;8.682;2023-08-17T03:19:40;3.90;;;2.57;;
65567;SDS011;52211;50.154;8.682;2023-08-17T03:22:09;3.07;;;2.77;;
65567;SDS011;52211;50.154;8.682;2023-08-17T03:24:38;2.83;;;2.20;;
65567;SDS011;52211;50.154;8.682;2023-08-17T03:27:07;3.30;;;3.00;;
65567;SDS011;52211;50.154;8.682;2023-08-17T03:29:34;2.90;;;2.47;;
65567;SDS011;52211;50.154;8.682;2023-08-17T03:32:07;4.03;;;2.70;;
65567;SDS011;52211;50.154;8.682;2023-08-17T03:34:38;3.40;;;2.60;;
65567;SDS011;52211;50.154;8.682;2023-08-17T03:37:06;2.83;;;2.13;;
65567;SDS011;52211;50.154;8.682;2023-08-17T03:39:35;6.20;;;2.67;;
65567;SDS011;52211;50.154;8.682;2023-08-17T03:42:02;2.53;;;2.33;;
65567;SDS011;52211;50.154;8.682;2023-08-17T03:44:31;3.33;;;2.30;;
65567;SDS011;52211;50.154;8.682;2023-08-17T03:47:07;5.37;;;2.73;;
65567;SDS011;52211;50.154;8.682;2023-08-17T03:49:33;4.37;;;3.10;;
65567;SDS011;52211;50.154;8.682;2023-08-17T03:52:02;3.43;;;3.10;;
65567;SDS011;52211;50.154;8.682;2023-08-17T03:54:32;4.07;;;3.10;;
65567;SDS011;52211;50.154;8.682;2023-08-17T03:56:59;3.23;;;3.00;;
65567;SDS011;52211;50.154;8.682;2023-08-17T03:59:30;4.30;;;2.93;;
65567;SDS011;52211;50.154;8.682;2023-08-17T04:02:01;3.37;;;3.07;;
65567;SDS011;52211;50.154;8.682;2023-08-17T04:04:28;5.17;;;3.63;;
65567;SDS011;52211;50.154;8.682;2023-08-17T04:06:57;8.73;;;3.33;;
65567;SDS011;52211;50.154;8.682;2023-08-17T04:09:26;5.33;;;4.00;;
65567;SDS011;52211;50.154;8.682;2023-08-17T04:11:56;3.13;;;2.83;;
65567;SDS011;52211;50.154;8.682;2023-08-17T04:14:32;4.33;;;3.40;;
65567;SDS011;52211;50.154;8.682;2023-08-17T04:17:02;9.70;;;4.53;;
65567;SDS011;52211;50.154;8.682;2023-08-17T04:19:31;9.23;;;4.03;;
65567;SDS011;52211;50.154;8.682;2023-08-17T04:22:00;5.77;;;4.43;;
65567;SDS011;52211;50.154;8.682;2023-08-17T04:24:27;7.90;;;4.13;;
65567;SDS011;52211;50.154;8.682;2023-08-17T04:26:54;4.43;;;3.63;;
65567;SDS011;52211;50.154;8.682;2023-08-17T04:29:21;3.47;;;2.90;;
65567;SDS011;52211;50.154;8.682;2023-08-17T04:31:51;4.93;;;3.47;;
65567;SDS011;52211;50.154;8.682;2023-08-17T04:34:18;3.70;;;3.30;;
65567;SDS011;52211;50.154;8.682;2023-08-17T04:36:49;5.30;;;3.07;;
65567;SDS011;52211;50.154;8.682;2023-08-17T04:39:19;3.97;;;2.50;;
65567;SDS011;52211;50.154;8.682;2023-08-17T04:41:46;3.10;;;2.80;;
65567;SDS011;52211;50.154;8.682;2023-08-17T04:44:19;4.63;;;3.17;;
65567;SDS011;52211;50.154;8.682;2023-08-17T04:46:50;7.23;;;3.43;;
65567;SDS011;52211;50.154;8.682;2023-08-17T04:49:19;3.80;;;2.77;;
65567;SDS011;52211;50.154;8.682;2023-08-17T04:51:46;2.97;;;2.63;;
65567;SDS011;52211;50.154;8.682;2023-08-17T04:54:13;3.87;;;3.40;;
65567;SDS011;52211;50.154;8.682;2023-08-17T04:56:44;2.77;;;2.57;;
65567;SDS011;52211;50.154;8.682;2023-08-17T04:59:12;2.50;;;2.30;;
65567;SDS011;52211;50.154;8.682;2023-08-17T05:01:39;2.63;;;2.30;;
65567;SDS011;52211;50.154;8.682;2023-08-17T05:04:10;4.67;;;2.70;;
65567;SDS011;52211;50.154;8.682;2023-08-17T05:06:44;2.47;;;2.27;;
65567;SDS011;52211;50.154;8.682;2023-08-17T05:09:13;5.50;;;2.40;;
65567;SDS011;52211;50.154;8.682;2023-08-17T05:11:40;3.27;;;2.50;;
65567;SDS011;52211;50.154;8.682;2023-08-17T05:14:10;3.13;;;2.40;;
65567;SDS011;52211;50.154;8.682;2023-08-17T05:16:39;2.93;;;2.70;;
65567;SDS011;52211;50.154;8.682;2023-08-17T05:19:09;3.17;;;2.60;;
65567;SDS011;52211;50.154;8.682;2023-08-17T05:21:40;4.27;;;2.73;;
65567;SDS011;52211;50.154;8.682;2023-08-17T05:24:07;3.20;;;2.67;;
65567;SDS011;52211;50.154;8.682;2023-08-17T05:26:38;2.63;;;2.43;;
65567;SDS011;52211;50.154;8.682;2023-08-17T05:29:11;5.30;;;2.50;;
65567;SDS011;52211;50.154;8.682;2023-08-17T05:31:43;2.40;;;2.20;;
65567;SDS011;52211;50.154;8.682;2023-08-17T05:34:09;4.80;;;2.47;;
65567;SDS011;52211;50.154;8.682;2023-08-17T05:36:39;3.43;;;2.60;;
65567;SDS011;52211;50.154;8.682;2023-08-17T05:39:14;7.50;;;2.83;;
65567;SDS011;52211;50.154;8.682;2023-08-17T05:41:46;6.53;;;3.63;;
65567;SDS011;52211;50.154;8.682;2023-08-17T05:44:20;3.93;;;2.67;;
65567;SDS011;52211;50.154;8.682;2023-08-17T05:46:48;3.17;;;2.83;;
65567;SDS011;52211;50.154;8.682;2023-08-17T05:49:21;6.00;;;3.00;;
65567;SDS011;52211;50.154;8.682;2023-08-17T05:51:51;5.17;;;3.27;;
65567;SDS011;52211;50.154;8.682;2023-08-17T05:54:18;8.00;;;3.37;;
65567;SDS011;52211;50.154;8.682;2023-08-17T05:56:45;5.73;;;3.10;;
65567;SDS011;52211;50.154;8.682;2023-08-17T05:59:14;3.20;;;2.80;;
65567;SDS011;52211;50.154;8.682;2023-08-17T06:01:43;3.50;;;3.20;;
65567;SDS011;52211;50.154;8.682;2023-08-17T06:04:12;5.33;;;3.30;;
65567;SDS011;52211;50.154;8.682;2023-08-17T06:06:45;7.07;;;2.83;;
65567;SDS011;52211;50.154;8.682;2023-08-17T06:09:13;2.67;;;2.30;;
65567;SDS011;52211;50.154;8.682;2023-08-17T06:11:44;2.93;;;2.63;;
65567;SDS011;52211;50.154;8.682;2023-08-17T06:14:11;3.10;;;2.90;;
65567;SDS011;52211;50.154;8.682;2023-08-17T06:16:42;3.60;;;3.30;;
65567;SDS011;52211;50.154;8.682;2023-08-17T06:19:14;4.17;;;3.17;;
65567;SDS011;52211;50.154;8.682;2023-08-17T06:21:45;3.20;;;2.90;;
65567;SDS011;52211;50.154;8.682;2023-08-17T06:24:14;3.20;;;2.90;;
65567;SDS011;52211;50.154;8.682;2023-08-17T06:26:44;3.43;;;3.13;;
65567;SDS011;52211;50.154;8.682;2023-08-17T06:29:12;3.37;;;2.93;;
65567;SDS011;52211;50.154;8.682;2023-08-17T06:31:40;3.10;;;2.90;;
65567;SDS011;52211;50.154;8.682;2023-08-17T06:34:07;5.83;;;3.27;;
65567;SDS011;52211;50.154;8.682;2023-08-17T06:36:37;3.27;;;2.57;;
65567;SDS011;52211;50.154;8.682;2023-08-17T06:39:05;2.73;;;2.53;;
65567;SDS011;52211;50.154;8.682;2023-08-17T06:41:35;2.87;;;2.67;;
65567;SDS011;52211;50.154;8.682;2023-08-17T06:44:04;3.53;;;3.23;;
65567;SDS011;52211;50.154;8.682;2023-08-17T06:46:33;3.17;;;2.87;;
65567;SDS011;52211;50.154;8.682;2023-08-17T06:49:03;4.33;;;3.00;;
65567;SDS011;52211;50.154;8.682;2023-08-17T06:51:32;2.97;;;2.67;;
65567;SDS011;52211;50.154;8.682;2023-08-17T06:53:59;3.33;;;3.03;;
65567;SDS011;52211;50.154;8.682;2023-08-17T06:56:31;4.43;;;3.10;;
65567;SDS011;52211;50.154;8.682;2023-08-17T06:59:00;4.20;;;3.80;;
65567;SDS011;52211;50.154;8.682;2023-08-17T07:01:32;4.87;;;3.23;;
65567;SDS011;52211;50.154;8.682;2023-08-17T07:04:01;2.93;;;2.50;;
65567;SDS011;52211;50.154;8.682;2023-08-17T07:06:28;2.97;;;2.67;;
65567;SDS011;52211;50.154;8.682;2023-08-17T07:08:55;2.63;;;2.33;;
65567;SDS011;52211;50.154;8.682;2023-08-17T07:11:22;2.60;;;2.40;;
65567;SDS011;52211;50.154;8.682;2023-08-17T07:13:50;2.67;;;2.13;;
65567;SDS011;52211;50.154;8.682;2023-08-17T07:16:19;2.17;;;2.07;;
65567;SDS011;52211;50.154;8.682;2023-08-17T07:18:46;2.73;;;2.53;;
65567;SDS011;52211;50.154;8.682;2023-08-17T07:21:15;2.63;;;2.43;;
65567;SDS011;52211;50.154;8.682;2023-08-17T07:23:45;2.73;;;2.53;;
65567;SDS011;52211;50.154;8.682;2023-08-17T07:26:13;2.20;;;2.00;;
65567;SDS011;52211;50.154;8.682;2023-08-17T07:28:40;2.37;;;2.17;;
65567;SDS011;52211;50.154;8.682;2023-08-17T07:31:09;2.30;;;2.10;;
65567;SDS011;52211;50.154;8.682;2023-08-17T07:33:36;2.47;;;2.27;;
65567;SDS011;52211;50.154;8.682;2023-08-17T07:36:03;2.43;;;1.93;;
65567;SDS011;52211;50.154;8.682;2023-08-17T07:38:33;1.90;;;1.80;;
65567;SDS011;52211;50.154;8.682;2023-08-17T07:41:00;2.20;;;2.00;;
65567;SDS011;52211;50.154;8.682;2023-08-17T07:43:27;2.27;;;2.07;;
65567;SDS011;52211;50.154;8.682;2023-08-17T07:45:54;2.13;;;2.00;;
65567;SDS011;52211;50.154;8.682;2023-08-17T07:48:27;1.67;;;1.57;;
65567;SDS011;52211;50.154;8.682;2023-08-17T07:50:59;2.10;;;2.00;;
65567;SDS011;52211;50.154;8.682;2023-08-17T07:53:31;1.70;;;1.60;;
65567;SDS011;52211;50.154;8.682;2023-08-17T07:55:58;2.20;;;2.00;;
65567;SDS011;52211;50.154;8.682;2023-08-17T07:58:27;2.57;;;1.87;;
65567;SDS011;52211;50.154;8.682;2023-08-17T08:00:54;2.37;;;2.10;;
65567;SDS011;52211;50.154;8.682;2023-08-17T08:03:23;1.60;;;1.50;;
65567;SDS011;52211;50.154;8.682;2023-08-17T08:05:51;1.87;;;1.77;;
65567;SDS011;52211;50.154;8.682;2023-08-17T08:08:21;1.90;;;1.70;;
65567;SDS011;52211;50.154;8.682;2023-08-17T08:10:52;1.97;;;1.87;;
65567;SDS011;52211;50.154;8.682;2023-08-17T08:13:22;2.40;;;2.20;;
65567;SDS011;52211;50.154;8.682;2023-08-17T08:15:53;2.40;;;1.80;;
65567;SDS011;52211;50.154;8.682;2023-08-17T08:18:25;2.17;;;1.97;;
65567;SDS011;52211;50.154;8.682;2023-08-17T08:20:52;2.63;;;1.83;;
65567;SDS011;52211;50.154;8.682;2023-08-17T08:23:21;1.77;;;1.67;;
65567;SDS011;52211;50.154;8.682;2023-08-17T08:25:50;1.70;;;1.60;;
65567;SDS011;52211;50.154;8.682;2023-08-17T08:28:16;1.80;;;1.70;;
65567;SDS011;52211;50.154;8.682;2023-08-17T08:30:43;2.57;;;1.70;;
65567;SDS011;52211;50.154;8.682;2023-08-17T08:33:12;2.77;;;1.97;;
65567;SDS011;52211;50.154;8.682;2023-08-17T08:35:39;1.63;;;1.40;;
65567;SDS011;52211;50.154;8.682;2023-08-17T08:38:06;1.57;;;1.47;;
65567;SDS011;52211;50.154;8.682;2023-08-17T08:40:35;1.80;;;1.70;;
65567;SDS011;52211;50.154;8.682;2023-08-17T08:43:06;1.87;;;1.73;;
65567;SDS011;52211;50.154;8.682;2023-08-17T08:45:35;1.40;;;1.30;;
65567;SDS011;52211;50.154;8.682;2023-08-17T08:48:04;1.50;;;1.40;;
65567;SDS011;52211;50.154;8.682;2023-08-17T08:50:38;2.67;;;1.60;;
65567;SDS011;52211;50.154;8.682;2023-08-17T08:53:11;1.40;;;1.30;;
65567;SDS011;52211;50.154;8.682;2023-08-17T08:55:54;1.30;;;1.30;;
65567;SDS011;52211;50.154;8.682;2023-08-17T08:58:25;1.57;;;1.47;;
65567;SDS011;52211;50.154;8.682;2023-08-17T09:00:54;1.63;;;1.53;;
65567;SDS011;52211;50.154;8.682;2023-08-17T09:03:27;1.40;;;1.40;;
65567;SDS011;52211;50.154;8.682;2023-08-17T09:05:56;1.70;;;1.50;;
65567;SDS011;52211;50.154;8.682;2023-08-17T09:08:27;1.53;;;1.43;;
65567;SDS011;52211;50.154;8.682;2023-08-17T09:10:55;1.97;;;1.67;;
65567;SDS011;52211;50.154;8.682;2023-08-17T09:13:23;2.50;;;1.30;;
65567;SDS011;52211;50.154;8.682;2023-08-17T09:15:50;1.10;;;1.10;;
65567;SDS011;52211;50.154;8.682;2023-08-17T09:18:19;1.30;;;1.20;;
65567;SDS011;52211;50.154;8.682;2023-08-17T09:20:51;1.97;;;1.33;;
65567;SDS011;52211;50.154;8.682;2023-08-17T09:23:21;1.70;;;1.60;;
65567;SDS011;52211;50.154;8.682;2023-08-17T09:25:49;1.23;;;1.23;;
65567;SDS011;52211;50.154;8.682;2023-08-17T09:28:26;1.30;;;1.20;;
65567;SDS011;52211;50.154;8.682;2023-08-17T09:31:01;1.87;;;1.77;;
65567;SDS011;52211;50.154;8.682;2023-08-17T09:33:31;1.87;;;1.13;;
65567;SDS011;52211;50.154;8.682;2023-08-17T09:36:01;1.20;;;1.20;;
65567;SDS011;52211;50.154;8.682;2023-08-17T09:38:31;1.50;;;1.40;;
65567;SDS011;52211;50.154;8.682;2023-08-17T09:40:58;1.40;;;1.30;;
65567;SDS011;52211;50.154;8.682;2023-08-17T09:43:25;2.20;;;1.20;;
65567;SDS011;52211;50.154;8.682;2023-08-17T09:45:59;1.63;;;1.50;;
65567;SDS011;52211;50.154;8.682;2023-08-17T09:48:28;1.17;;;1.17;;
65567;SDS011;52211;50.154;8.682;2023-08-17T09:51:01;3.33;;;1.10;;
65567;SDS011;52211;50.154;8.682;2023-08-17T09:53:29;1.93;;;1.50;;
65567;SDS011;52211;50.154;8.682;2023-08-17T09:56:04;1.53;;;1.43;;
65567;SDS011;52211;50.154;8.682;2023-08-17T09:58:43;1.50;;;1.40;;
65567;SDS011;52211;50.154;8.682;2023-08-17T10:01:12;1.83;;;1.60;;
65567;SDS011;52211;50.154;8.682;2023-08-17T10:03:46;1.60;;;1.50;;
65567;SDS011;52211;50.154;8.682;2023-08-17T10:06:20;1.00;;;1.00;;
65567;SDS011;52211;50.154;8.682;2023-08-17T10:08:53;1.93;;;1.53;;
65567;SDS011;52211;50.154;8.682;2023-08-17T10:11:24;1.10;;;1.10;;
65567;SDS011;52211;50.154;8.682;2023-08-17T10:14:02;2.43;;;1.57;;
65567;SDS011;52211;50.154;8.682;2023-08-17T10:16:46;1.53;;;1.43;;
65567;SDS011;52211;50.154;8.682;2023-08-17T10:24:47;1.97;;;1.60;;
65567;SDS011;52211;50.154;8.682;2023-08-17T10:27:20;1.50;;;1.40;;
65567;SDS011;52211;50.154;8.682;2023-08-17T10:29:50;1.47;;;1.37;;
65567;SDS011;52211;50.154;8.682;2023-08-17T10:32:21;1.43;;;1.43;;
65567;SDS011;52211;50.154;8.682;2023-08-17T10:34:53;1.13;;;1.13;;
65567;SDS011;52211;50.154;8.682;2023-08-17T10:37:20;1.10;;;1.00;;
65567;SDS011;52211;50.154;8.682;2023-08-17T10:39:50;1.40;;;1.30;;
65567;SDS011;52211;50.154;8.682;2023-08-17T10:42:37;1.30;;;1.30;;
65567;SDS011;52211;50.154;8.682;2023-08-17T10:50:38;1.67;;;1.57;;
65567;SDS011;52211;50.154;8.682;2023-08-17T10:53:09;1.53;;;1.40;;
65567;SDS011;52211;50.154;8.682;2023-08-17T10:55:44;1.50;;;1.40;;
65567;SDS011;52211;50.154;8.682;2023-08-17T10:58:18;1.40;;;1.30;;
65567;SDS011;52211;50.154;8.682;2023-08-17T11:00:53;1.73;;;1.13;;
65567;SDS011;52211;50.154;8.682;2023-08-17T11:03:23;1.27;;;1.23;;
65567;SDS011;52211;50.154;8.682;2023-08-17T11:05:57;1.30;;;1.30;;
65567;SDS011;52211;50.154;8.682;2023-08-17T11:08:51;1.43;;;1.33;;
65567;SDS011;52211;50.154;8.682;2023-08-17T11:11:24;1.10;;;1.10;;
65567;SDS011;52211;50.154;8.682;2023-08-17T11:13:57;1.53;;;1.20;;
65567;SDS011;52211;50.154;8.682;2023-08-17T11:16:26;1.40;;;1.30;;
65567;SDS011;52211;50.154;8.682;2023-08-17T11:18:53;1.20;;;1.20;;
65567;SDS011;52211;50.154;8.682;2023-08-17T11:21:26;2.77;;;1.30;;
65567;SDS011;52211;50.154;8.682;2023-08-17T11:23:56;1.40;;;1.30;;
65567;SDS011;52211;50.154;8.682;2023-08-17T11:26:25;2.23;;;1.37;;
65567;SDS011;52211;50.154;8.682;2023-08-17T11:29:03;1.20;;;1.20;;
65567;SDS011;52211;50.154;8.682;2023-08-17T11:31:31;1.60;;;1.50;;
65567;SDS011;52211;50.154;8.682;2023-08-17T11:33:58;1.23;;;1.10;;
65567;SDS011;52211;50.154;8.682;2023-08-17T11:36:26;1.30;;;1.20;;
65567;SDS011;52211;50.154;8.682;2023-08-17T11:38:57;1.30;;;1.20;;
65567;SDS011;52211;50.154;8.682;2023-08-17T11:41:26;2.40;;;1.57;;
65567;SDS011;52211;50.154;8.682;2023-08-17T11:43:53;1.73;;;1.47;;
65567;SDS011;52211;50.154;8.682;2023-08-17T11:46:28;2.50;;;1.70;;
65567;SDS011;52211;50.154;8.682;2023-08-17T11:48:58;1.30;;;1.20;;
65567;SDS011;52211;50.154;8.682;2023-08-17T11:51:31;1.40;;;1.30;;
65567;SDS011;52211;50.154;8.682;2023-08-17T11:54:01;2.23;;;1.10;;
65567;SDS011;52211;50.154;8.682;2023-08-17T11:56:31;1.77;;;1.60;;
65567;SDS011;52211;50.154;8.682;2023-08-17T11:58:57;1.20;;;1.07;;
65567;SDS011;52211;50.154;8.682;2023-08-17T12:01:40;1.30;;;1.20;;
65567;SDS011;52211;50.154;8.682;2023-08-17T12:04:09;1.33;;;1.33;;
65567;SDS011;52211;50.154;8.682;2023-08-17T12:06:44;1.03;;;1.03;;
65567;SDS011;52211;50.154;8.682;2023-08-17T12:09:17;1.53;;;1.50;;
65567;SDS011;52211;50.154;8.682;2023-08-17T12:11:47;1.20;;;1.20;;
65567;SDS011;52211;50.154;8.682;2023-08-17T12:14:19;1.03;;;1.03;;
65567;SDS011;52211;50.154;8.682;2023-08-17T12:16:48;1.17;;;1.17;;
65567;SDS011;52211;50.154;8.682;2023-08-17T12:19:21;1.50;;;1.40;;
65567;SDS011;52211;50.154;8.682;2023-08-17T12:21:53;1.50;;;1.40;;
65567;SDS011;52211;50.154;8.682;2023-08-17T12:24:21;1.10;;;1.10;;
65567;SDS011;52211;50.154;8.682;2023-08-17T12:26:52;1.07;;;0.97;;
65567;SDS011;52211;50.154;8.682;2023-08-17T12:29:27;1.20;;;1.20;;
65567;SDS011;52211;50.154;8.682;2023-08-17T12:31:58;1.30;;;1.20;;
65567;SDS011;52211;50.154;8.682;2023-08-17T12:34:30;1.50;;;1.40;;
65567;SDS011;52211;50.154;8.682;2023-08-17T12:37:01;1.42;;;1.33;;
65567;SDS011;52211;50.154;8.682;2023-08-17T12:39:31;1.13;;;1.13;;
65567;SDS011;52211;50.154;8.682;2023-08-17T12:41:57;1.57;;;1.47;;
65567;SDS011;52211;50.154;8.682;2023-08-17T12:44:24;1.67;;;1.57;;
65567;SDS011;52211;50.154;8.682;2023-08-17T12:46:51;1.23;;;1.23;;
65567;SDS011;52211;50.154;8.682;2023-08-17T12:49:18;1.30;;;1.30;;
65567;SDS011;52211;50.154;8.682;2023-08-17T12:51:45;1.33;;;1.23;;
65567;SDS011;52211;50.154;8.682;2023-08-17T12:54:12;1.38;;;1.15;;
65567;SDS011;52211;50.154;8.682;2023-08-17T12:56:39;1.23;;;1.20;;
65567;SDS011;52211;50.154;8.682;2023-08-17T12:59:06;1.20;;;1.08;;
65567;SDS011;52211;50.154;8.682;2023-08-17T13:01:35;1.67;;;1.57;;
65567;SDS011;52211;50.154;8.682;2023-08-17T13:04:02;1.75;;;1.65;;
65567;SDS011;52211;50.154;8.682;2023-08-17T13:06:33;1.60;;;1.50;;
65567;SDS011;52211;50.154;8.682;2023-08-17T13:09:14;2.03;;;1.92;;
65567;SDS011;52211;50.154;8.682;2023-08-17T13:11:45;1.58;;;1.38;;
65567;SDS011;52211;50.154;8.682;2023-08-17T13:14:15;1.60;;;1.50;;
65567;SDS011;52211;50.154;8.682;2023-08-17T13:16:46;1.02;;;1.02;;
65567;SDS011;52211;50.154;8.682;2023-08-17T13:19:15;1.25;;;1.20;;
65567;SDS011;52211;50.154;8.682;2023-08-17T13:21:47;1.63;;;1.52;;
65567;SDS011;52211;50.154;8.682;2023-08-17T13:24:14;1.77;;;1.67;;
65567;SDS011;52211;50.154;8.682;2023-08-17T13:26:41;1.20;;;1.10;;
65567;SDS011;52211;50.154;8.682;2023-08-17T13:29:13;1.25;;;1.25;;
65567;SDS011;52211;50.154;8.682;2023-08-17T13:31:40;2.10;;;1.42;;
65567;SDS011;52211;50.154;8.682;2023-08-17T13:34:09;1.60;;;1.50;;
65567;SDS011;52211;50.154;8.682;2023-08-17T13:36:38;3.13;;;1.40;;
65567;SDS011;52211;50.154;8.682;2023-08-17T13:39:05;1.55;;;1.45;;
65567;SDS011;52211;50.154;8.682;2023-08-17T13:41:33;1.77;;;1.67;;
65567;SDS011;52211;50.154;8.682;2023-08-17T13:44:02;1.88;;;1.77;;
65567;SDS011;52211;50.154;8.682;2023-08-17T13:46:29;1.40;;;1.30;;
65567;SDS011;52211;50.154;8.682;2023-08-17T13:49:00;1.40;;;1.38;;
65567;SDS011;52211;50.154;8.682;2023-08-17T13:51:27;1.57;;;1.47;;
65567;SDS011;52211;50.154;8.682;2023-08-17T13:53:54;2.08;;;1.92;;
65567;SDS011;52211;50.154;8.682;2023-08-17T13:56:21;1.90;;;1.30;;
65567;SDS011;52211;50.154;8.682;2023-08-17T13:58:48;2.43;;;1.67;;
65567;SDS011;52211;50.154;8.682;2023-08-17T14:01:15;5.20;;;1.60;;
65567;SDS011;52211;50.154;8.682;2023-08-17T14:03:45;1.77;;;1.67;;
65567;SDS011;52211;50.154;8.682;2023-08-17T14:06:12;2.70;;;1.38;;
65567;SDS011;52211;50.154;8.682;2023-08-17T14:08:43;1.65;;;1.55;;
65567;SDS011;52211;50.154;8.682;2023-08-17T14:11:12;1.77;;;1.33;;
65567;SDS011;52211;50.154;8.682;2023-08-17T14:13:39;2.13;;;1.67;;
65567;SDS011;52211;50.154;8.682;2023-08-17T14:16:09;2.47;;;1.75;;
65567;SDS011;52211;50.154;8.682;2023-08-17T14:18:36;1.83;;;1.73;;
65567;SDS011;52211;50.154;8.682;2023-08-17T14:21:08;2.17;;;1.60;;
65567;SDS011;52211;50.154;8.682;2023-08-17T14:23:38;1.92;;;1.70;;
65567;SDS011;52211;50.154;8.682;2023-08-17T14:26:07;1.50;;;1.40;;
65567;SDS011;52211;50.154;8.682;2023-08-17T14:28:41;1.88;;;1.30;;
65567;SDS011;52211;50.154;8.682;2023-08-17T14:31:10;1.67;;;1.58;;
65567;SDS011;52211;50.154;8.682;2023-08-17T14:33:44;1.50;;;1.40;;
65567;SDS011;52211;50.154;8.682;2023-08-17T14:36:14;1.40;;;1.30;;
65567;SDS011;52211;50.154;8.682;2023-08-17T14:38:44;2.10;;;1.48;;
65567;SDS011;52211;50.154;8.682;2023-08-17T14:41:11;1.33;;;1.33;;
65567;SDS011;52211;50.154;8.682;2023-08-17T14:43:41;1.55;;;1.45;;
65567;SDS011;52211;50.154;8.682;2023-08-17T14:46:08;1.42;;;1.33;;
65567;SDS011;52211;50.154;8.682;2023-08-17T14:48:43;1.55;;;1.48;;
65567;SDS011;52211;50.154;8.682;2023-08-17T14:51:10;1.15;;;1.15;;
65567;SDS011;52211;50.154;8.682;2023-08-17T14:53:37;1.60;;;1.50;;
65567;SDS011;52211;50.154;8.682;2023-08-17T14:56:05;1.60;;;1.50;;
65567;SDS011;52211;50.154;8.682;2023-08-17T14:58:37;1.20;;;1.20;;
65567;SDS011;52211;50.154;8.682;2023-08-17T15:01:06;1.10;;;1.10;;
65567;SDS011;52211;50.154;8.682;2023-08-17T15:03:33;1.52;;;1.42;;
65567;SDS011;52211;50.154;8.682;2023-08-17T15:06:01;1.67;;;1.58;;
65567;SDS011;52211;50.154;8.682;2023-08-17T15:08:30;1.73;;;1.63;;
65567;SDS011;52211;50.154;8.682;2023-08-17T15:10:57;1.50;;;1.45;;
65567;SDS011;52211;50.154;8.682;2023-08-17T15:13:30;1.30;;;1.30;;
65567;SDS011;52211;50.154;8.682;2023-08-17T15:15:58;1.20;;;1.20;;